Terminal Aerodrome Forecast
Issued by NWS

Home | Current Version | Previous Version | Text Only | Print | Product List | Glossary On
Versions: 1 2 3 4 5 6 7 8 9 10 11 12 13
000
FTUS46 KSTO 170500
TAFSAC
TAF
KSAC 170523Z 1706/1806 19005KT P6SM SCT250
     FM172000 21011G19KT P6SM SCT200
     FM180500 21008KT P6SM SCT200=

USA.gov is the U.S. government's official web portal to all federal, state and local government web resources and services.